Aspen Park, Colorado
Current Conditions -  °F | °C
As of 3:53 AM on Friday 31 Oct 2014 (Local Time) from KAPA Reporting Station
Clear Clear  
Wind Chill: 35°   Ceiling: Unl
Heat Index: 41°   Visibility: 10mi
Dew Point: 25°   Wind: 9mph
Humidity: 53%   Direction: 190°S
Pressure: 30.34"   Gusts: NA
Location:  39.4975°N, 105.289°W
Report Text: KAPA 310953Z 19008KT 10SM CLR 05/M04 A3034 RMK AO2 SLP254 T00501039
Loading
Personal Weather Stations






























Interactive Weather Map
Tropical Storm Tracking
New forecast layout! Learn more

10-Day Weather Forecast

Advertisements
Track Severe Weather on mobile